Time;durP1;ratioP1;P1;durP2;ratioP2;P2;SDS_P1;SDS_P2;PMS_P1;PMS_P2;Temp;Humidity;BMP_temperature;BMP_pressure;BME280_temperature;BME280_humidity;BME280_pressure;Samples;Min_cycle;Max_cycle;Signal;HPM_P1;HPM_P2
2022/07/22 00:01:37;;;;;;;14.77;11.93;;;;;;;;;;5002896;28;20230;-72
2022/07/22 00:04:04;;;;;;;14.87;11.80;;;;;;;;;;5023091;28;20234;-72
2022/07/22 00:06:31;;;;;;;16.57;12.13;;;;;;;;;;5021174;28;20250;-72
2022/07/22 00:08:57;;;;;;;16.67;12.37;;;;;;;;;;5006248;28;20245;-72
2022/07/22 00:11:25;;;;;;;15.37;11.50;;;;;;;;;;5021212;28;20685;-72
2022/07/22 00:13:52;;;;;;;15.53;12.03;;;;;;;;;;4990014;28;20246;-72
2022/07/22 00:16:36;;;;;;;14.53;11.90;;;;;;;;;;4999753;28;20284;-72
2022/07/22 00:19:03;;;;;;;15.73;11.83;;;;;;;;;;5003056;28;20227;-72
2022/07/22 00:21:47;;;;;;;14.87;12.57;;;;;;;;;;4986211;28;20215;-72
2022/07/22 00:24:14;;;;;;;14.37;11.73;;;;;;;;;;5003367;28;20226;-72
2022/07/22 00:26:40;;;;;;;17.87;13.07;;;;;;;;;;5000573;28;20223;-72
2022/07/22 00:29:07;;;;;;;14.60;12.67;;;;;;;;;;5003562;28;20246;-72
2022/07/22 00:31:34;;;;;;;15.23;12.80;;;;;;;;;;5001353;28;20223;-72
2022/07/22 00:34:01;;;;;;;17.23;12.87;;;;;;;;;;4965845;28;20235;-72
2022/07/22 00:36:28;;;;;;;16.83;12.33;;;;;;;;;;4992103;28;20242;-72
2022/07/22 00:38:55;;;;;;;19.60;12.60;;;;;;;;;;5002969;28;20242;-72
2022/07/22 00:41:22;;;;;;;16.33;12.80;;;;;;;;;;4985891;28;20223;-72
2022/07/22 00:44:07;;;;;;;16.40;12.63;;;;;;;;;;4987297;28;20226;-72
2022/07/22 00:46:36;;;;;;;15.37;13.30;;;;;;;;;;5020432;28;20347;-72
2022/07/22 00:49:03;;;;;;;14.60;11.67;;;;;;;;;;5021738;28;20302;-72
2022/07/22 00:51:30;;;;;;;17.90;13.30;;;;;;;;;;5003012;28;20305;-72
2022/07/22 00:53:57;;;;;;;16.90;13.97;;;;;;;;;;5022254;28;20250;-72
2022/07/22 00:56:24;;;;;;;19.40;13.50;;;;;;;;;;4995348;28;214230;-72
2022/07/22 00:58:51;;;;;;;16.70;13.87;;;;;;;;;;5004926;28;20231;-72
2022/07/22 01:01:19;;;;;;;16.73;13.87;;;;;;;;;;5002456;28;20341;-72
2022/07/22 01:03:45;;;;;;;17.73;14.23;;;;;;;;;;4987927;28;20234;-72
2022/07/22 01:06:17;;;;;;;16.83;12.80;;;;;;;;;;5004799;28;20253;-72
2022/07/22 01:08:44;;;;;;;17.87;14.00;;;;;;;;;;5023056;28;20254;-72
2022/07/22 01:11:14;;;;;;;16.27;13.33;;;;;;;;;;5002218;28;20301;-72
2022/07/22 01:13:40;;;;;;;17.67;14.60;;;;;;;;;;5002255;28;20226;-72
2022/07/22 01:16:07;;;;;;;16.33;13.20;;;;;;;;;;5021469;28;20250;-72
2022/07/22 01:18:35;;;;;;;17.10;13.80;;;;;;;;;;5002183;28;20321;-72
2022/07/22 01:21:02;;;;;;;17.03;13.57;;;;;;;;;;5022072;28;20741;-72
2022/07/22 01:23:28;;;;;;;17.30;14.53;;;;;;;;;;5003980;28;20577;-72
2022/07/22 01:25:55;;;;;;;15.73;13.90;;;;;;;;;;5003251;28;20285;-72
2022/07/22 01:28:39;;;;;;;16.17;13.47;;;;;;;;;;5002195;28;20321;-72
2022/07/22 01:31:06;;;;;;;17.43;14.67;;;;;;;;;;4994679;28;214567;-72
2022/07/22 01:33:51;;;;;;;18.63;14.20;;;;;;;;;;5019984;28;20280;-72
2022/07/22 01:36:18;;;;;;;17.13;13.33;;;;;;;;;;5019821;28;20238;-72
2022/07/22 01:38:45;;;;;;;15.73;13.27;;;;;;;;;;5003773;28;20253;-72
2022/07/22 01:41:12;;;;;;;18.87;14.57;;;;;;;;;;5001727;28;20330;-72
2022/07/22 01:43:39;;;;;;;18.63;15.67;;;;;;;;;;5020876;28;20384;-72
2022/07/22 01:46:06;;;;;;;19.90;15.13;;;;;;;;;;5019550;28;20222;-72
2022/07/22 01:48:37;;;;;;;16.37;14.20;;;;;;;;;;5001516;28;20365;-72
2022/07/22 01:51:04;;;;;;;18.30;13.70;;;;;;;;;;5004245;28;20231;-72
2022/07/22 01:53:31;;;;;;;19.40;15.00;;;;;;;;;;5002142;28;20242;-72
2022/07/22 01:55:58;;;;;;;18.57;15.47;;;;;;;;;;5002395;28;20238;-72
2022/07/22 01:58:26;;;;;;;17.90;14.63;;;;;;;;;;5001389;28;20309;-72
2022/07/22 02:00:55;;;;;;;17.43;13.97;;;;;;;;;;4994179;28;20902;-72
2022/07/22 02:03:22;;;;;;;19.67;16.30;;;;;;;;;;4975667;28;221546;-72
2022/07/22 02:05:49;;;;;;;16.30;13.00;;;;;;;;;;5024996;28;20717;-72
2022/07/22 02:08:21;;;;;;;17.83;13.57;;;;;;;;;;4973692;28;20625;-72
2022/07/22 02:11:14;;;;;;;19.87;15.37;;;;;;;;;;4990477;28;20242;-72
2022/07/22 02:13:55;;;;;;;16.17;13.83;;;;;;;;;;4998506;28;20227;-73
2022/07/22 02:16:22;;;;;;;19.97;15.70;;;;;;;;;;4981263;28;20661;-72
2022/07/22 02:18:50;;;;;;;21.17;15.90;;;;;;;;;;4976852;28;20239;-72
2022/07/22 02:21:18;;;;;;;19.37;15.90;;;;;;;;;;4961608;28;20252;-72
2022/07/22 02:24:02;;;;;;;16.10;14.43;;;;;;;;;;5000756;28;20234;-72
2022/07/22 02:26:29;;;;;;;18.30;16.00;;;;;;;;;;5001316;28;20227;-72
2022/07/22 02:28:56;;;;;;;18.53;15.60;;;;;;;;;;5020449;28;20236;-72
2022/07/22 02:31:23;;;;;;;19.60;15.57;;;;;;;;;;5019447;28;20241;-72
2022/07/22 02:33:50;;;;;;;19.30;16.03;;;;;;;;;;5020451;28;20258;-72
2022/07/22 02:36:17;;;;;;;19.70;15.77;;;;;;;;;;5003063;28;20218;-72
2022/07/22 02:38:46;;;;;;;22.50;17.43;;;;;;;;;;5002233;28;21759;-72
2022/07/22 02:41:14;;;;;;;21.17;16.83;;;;;;;;;;5002225;28;21027;-72
2022/07/22 02:43:48;;;;;;;19.13;16.03;;;;;;;;;;5000159;28;20257;-72
2022/07/22 02:46:15;;;;;;;20.73;17.37;;;;;;;;;;5002872;28;20296;-72
2022/07/22 02:48:42;;;;;;;18.37;16.17;;;;;;;;;;4985419;28;20230;-72
2022/07/22 02:51:12;;;;;;;18.80;16.30;;;;;;;;;;5003150;28;20280;-72
2022/07/22 02:53:39;;;;;;;17.27;14.73;;;;;;;;;;4993566;28;222153;-72
2022/07/22 02:56:06;;;;;;;19.27;17.13;;;;;;;;;;4980631;28;20246;-72
2022/07/22 02:58:33;;;;;;;21.23;17.03;;;;;;;;;;4989308;28;20217;-72
2022/07/22 03:01:00;;;;;;;20.43;17.43;;;;;;;;;;5002057;28;20219;-72
2022/07/22 03:03:27;;;;;;;18.37;16.37;;;;;;;;;;4983736;28;27379;-72
2022/07/22 03:05:54;;;;;;;17.40;15.57;;;;;;;;;;4971971;28;21086;-72
2022/07/22 03:08:32;;;;;;;19.70;16.00;;;;;;;;;;5000468;28;20226;-73
2022/07/22 03:10:59;;;;;;;18.80;15.30;;;;;;;;;;5003842;28;20233;-72
2022/07/22 03:13:26;;;;;;;21.80;16.80;;;;;;;;;;5018445;28;20262;-70
2022/07/22 03:15:53;;;;;;;24.13;20.77;;;;;;;;;;4923423;28;20688;-72
2022/07/22 03:18:20;;;;;;;24.43;19.20;;;;;;;;;;4944229;28;20232;-74
2022/07/22 03:20:47;;;;;;;25.53;18.73;;;;;;;;;;4985656;28;20266;-71
2022/07/22 03:23:14;;;;;;;20.53;16.80;;;;;;;;;;4971066;28;20428;-71
2022/07/22 03:25:42;;;;;;;23.40;17.40;;;;;;;;;;4985142;28;20214;-71
2022/07/22 03:28:08;;;;;;;22.90;17.50;;;;;;;;;;5021198;28;20803;-71
2022/07/22 03:30:35;;;;;;;22.00;16.33;;;;;;;;;;5005729;28;20276;-71
2022/07/22 03:33:02;;;;;;;21.53;17.37;;;;;;;;;;4988248;28;20241;-71
2022/07/22 03:35:33;;;;;;;22.37;18.27;;;;;;;;;;5003784;28;20234;-71
2022/07/22 03:38:02;;;;;;;23.33;18.53;;;;;;;;;;4998072;28;230101;-71
2022/07/22 03:40:29;;;;;;;21.77;18.93;;;;;;;;;;4987757;28;20709;-71
2022/07/22 03:42:57;;;;;;;25.47;18.80;;;;;;;;;;4998258;28;218343;-71
2022/07/22 03:45:24;;;;;;;23.60;18.87;;;;;;;;;;5022472;28;20313;-71
2022/07/22 03:48:10;;;;;;;23.77;18.83;;;;;;;;;;4953157;28;218161;-71
2022/07/22 03:50:38;;;;;;;22.17;18.80;;;;;;;;;;4987466;28;46423;-70
2022/07/22 03:53:05;;;;;;;21.93;17.90;;;;;;;;;;4934601;28;20248;-71
2022/07/22 03:55:36;;;;;;;22.07;17.40;;;;;;;;;;4935260;28;20579;-68
2022/07/22 03:58:05;;;;;;;18.97;16.40;;;;;;;;;;4959113;28;20231;-71
2022/07/22 04:00:32;;;;;;;22.87;17.77;;;;;;;;;;4948476;28;230399;-72
2022/07/22 04:03:01;;;;;;;21.50;16.40;;;;;;;;;;4943453;28;212574;-71
2022/07/22 04:05:47;;;;;;;28.40;17.30;;;;;;;;;;4953130;28;23737;-70
2022/07/22 04:08:22;;;;;;;27.50;18.03;;;;;;;;;;4931287;28;26652;-70
2022/07/22 04:10:51;;;;;;;21.97;17.87;;;;;;;;;;4949948;28;20319;-69
2022/07/22 04:13:17;;;;;;;20.63;17.23;;;;;;;;;;4981093;28;20239;-68
2022/07/22 04:15:49;;;;;;;25.17;17.43;;;;;;;;;;4952716;28;20229;-68
2022/07/22 04:18:17;;;;;;;19.63;17.07;;;;;;;;;;4962710;28;20693;-68
2022/07/22 04:20:46;;;;;;;24.07;17.77;;;;;;;;;;4973393;28;20783;-68
2022/07/22 04:23:30;;;;;;;23.83;16.87;;;;;;;;;;4968366;28;20236;-67
2022/07/22 04:26:09;;;;;;;25.97;15.90;;;;;;;;;;4971916;28;20294;-68
2022/07/22 04:28:36;;;;;;;30.10;17.13;;;;;;;;;;5000989;28;20231;-71
2022/07/22 04:31:04;;;;;;;23.97;17.63;;;;;;;;;;5002194;28;20227;-68
2022/07/22 04:33:31;;;;;;;24.23;17.83;;;;;;;;;;4999068;28;20230;-68
2022/07/22 04:35:59;;;;;;;24.83;19.00;;;;;;;;;;5002055;28;20219;-68
2022/07/22 04:38:25;;;;;;;23.20;18.80;;;;;;;;;;4982601;28;20230;-69
2022/07/22 04:41:03;;;;;;;24.47;18.80;;;;;;;;;;5001972;28;20234;-68
2022/07/22 04:43:49;;;;;;;21.80;19.07;;;;;;;;;;4999853;28;20262;-68
2022/07/22 04:46:16;;;;;;;26.23;18.63;;;;;;;;;;4999132;28;20250;-68
2022/07/22 04:48:43;;;;;;;25.13;19.80;;;;;;;;;;5001515;28;20995;-68
2022/07/22 04:51:10;;;;;;;25.77;19.60;;;;;;;;;;5002355;28;20227;-68
2022/07/22 04:53:38;;;;;;;20.80;18.20;;;;;;;;;;4998288;28;21320;-69
2022/07/22 04:56:16;;;;;;;24.37;18.97;;;;;;;;;;4990704;28;20239;-68
2022/07/22 04:58:44;;;;;;;26.60;19.33;;;;;;;;;;4979972;28;20271;-70
2022/07/22 05:01:10;;;;;;;26.53;18.93;;;;;;;;;;4983044;28;20275;-69
2022/07/22 05:03:38;;;;;;;24.60;18.97;;;;;;;;;;4979654;28;20224;-68
2022/07/22 05:06:05;;;;;;;24.23;18.93;;;;;;;;;;4963116;28;20231;-68
2022/07/22 05:08:36;;;;;;;21.20;18.87;;;;;;;;;;4974166;28;20317;-69
2022/07/22 05:11:03;;;;;;;27.37;17.90;;;;;;;;;;4973908;28;20303;-68
2022/07/22 05:13:31;;;;;;;24.80;17.93;;;;;;;;;;5000587;28;20238;-69
2022/07/22 05:16:02;;;;;;;21.97;17.50;;;;;;;;;;5000414;28;20235;-69
2022/07/22 05:18:31;;;;;;;23.87;17.87;;;;;;;;;;4998808;28;20671;-69
2022/07/22 05:20:58;;;;;;;27.47;18.50;;;;;;;;;;4999735;28;20221;-69
2022/07/22 05:23:25;;;;;;;28.47;18.73;;;;;;;;;;5000328;28;20366;-69
2022/07/22 05:25:51;;;;;;;33.40;18.60;;;;;;;;;;5000715;28;20235;-68
2022/07/22 05:28:36;;;;;;;27.23;18.70;;;;;;;;;;4997586;28;20233;-70
2022/07/22 05:31:03;;;;;;;23.60;18.07;;;;;;;;;;5002173;28;20976;-69
2022/07/22 05:33:47;;;;;;;25.50;19.50;;;;;;;;;;4997987;28;20226;-68
2022/07/22 05:36:24;;;;;;;28.00;19.23;;;;;;;;;;4991567;28;213142;-68
2022/07/22 05:39:11;;;;;;;28.27;19.87;;;;;;;;;;5000334;28;20219;-67
2022/07/22 05:41:38;;;;;;;27.03;20.23;;;;;;;;;;4999901;28;20231;-67
2022/07/22 05:44:23;;;;;;;31.83;20.33;;;;;;;;;;4999277;28;20227;-69
2022/07/22 05:46:50;;;;;;;28.20;21.57;;;;;;;;;;4979396;28;20260;-69
2022/07/22 05:49:34;;;;;;;25.30;20.87;;;;;;;;;;4978189;28;21020;-70
2022/07/22 05:52:08;;;;;;;31.23;20.93;;;;;;;;;;4979658;28;20223;-69
2022/07/22 05:54:53;;;;;;;27.13;20.73;;;;;;;;;;4979153;28;20706;-69
2022/07/22 05:57:19;;;;;;;24.07;20.27;;;;;;;;;;4975200;28;20238;-69
2022/07/22 05:59:47;;;;;;;23.63;19.63;;;;;;;;;;4971344;28;20235;-69
2022/07/22 06:02:13;;;;;;;30.87;22.07;;;;;;;;;;4979251;28;20220;-69
2022/07/22 06:04:45;;;;;;;26.43;21.50;;;;;;;;;;4978461;28;20246;-69
2022/07/22 06:07:13;;;;;;;29.17;22.50;;;;;;;;;;4977751;28;20246;-69
2022/07/22 06:09:42;;;;;;;33.47;22.37;;;;;;;;;;4976712;28;20320;-69
2022/07/22 06:12:11;;;;;;;31.43;23.57;;;;;;;;;;4970028;28;20252;-68
2022/07/22 06:14:37;;;;;;;33.40;24.20;;;;;;;;;;4981307;28;20247;-69
2022/07/22 06:17:04;;;;;;;34.53;24.00;;;;;;;;;;4978827;28;20232;-69
2022/07/22 06:19:32;;;;;;;32.63;25.07;;;;;;;;;;4977885;28;20239;-70
2022/07/22 06:21:59;;;;;;;36.10;24.53;;;;;;;;;;4982430;28;20220;-69
2022/07/22 06:24:26;;;;;;;39.33;25.07;;;;;;;;;;4958558;28;20235;-68
2022/07/22 06:26:54;;;;;;;31.17;24.40;;;;;;;;;;4985129;28;20305;-69
2022/07/22 06:29:21;;;;;;;30.40;23.87;;;;;;;;;;4999829;28;20709;-70
2022/07/22 06:31:47;;;;;;;33.87;25.60;;;;;;;;;;4998939;28;20230;-69
2022/07/22 06:34:14;;;;;;;29.50;23.63;;;;;;;;;;4983520;28;20227;-70
2022/07/22 06:36:59;;;;;;;34.27;23.80;;;;;;;;;;4996139;28;20219;-69
2022/07/22 06:39:27;;;;;;;29.20;23.03;;;;;;;;;;5000049;28;20242;-68
2022/07/22 06:41:56;;;;;;;27.60;23.07;;;;;;;;;;4999508;28;20231;-69
2022/07/22 06:44:42;;;;;;;25.93;22.80;;;;;;;;;;4999452;28;20571;-68
2022/07/22 06:47:13;;;;;;;27.70;24.23;;;;;;;;;;4997749;28;20366;-69
2022/07/22 06:49:41;;;;;;;28.63;23.83;;;;;;;;;;4997673;28;20288;-71
2022/07/22 06:52:09;;;;;;;29.10;23.23;;;;;;;;;;4999982;28;20235;-69
2022/07/22 06:54:36;;;;;;;29.10;23.27;;;;;;;;;;4996998;28;20241;-70
2022/07/22 06:57:03;;;;;;;29.20;24.17;;;;;;;;;;4983470;28;20224;-69
2022/07/22 06:59:33;;;;;;;28.87;22.43;;;;;;;;;;4961962;28;20565;-69
2022/07/22 07:02:05;;;;;;;29.77;23.90;;;;;;;;;;4963076;28;20232;-69
2022/07/22 07:04:37;;;;;;;25.63;22.80;;;;;;;;;;4947436;28;20225;-70
2022/07/22 07:07:03;;;;;;;28.70;23.00;;;;;;;;;;4974173;28;20577;-69
2022/07/22 07:09:30;;;;;;;29.17;23.07;;;;;;;;;;4980978;28;20740;-69
2022/07/22 07:12:20;;;;;;;29.17;23.20;;;;;;;;;;4974367;28;20230;-70
2022/07/22 07:15:23;;;;;;;27.03;24.10;;;;;;;;;;4907145;29;20264;-70
2022/07/22 07:17:58;;;;;;;26.87;23.30;;;;;;;;;;4970967;28;20760;-69
2022/07/22 07:20:25;;;;;;;25.57;22.83;;;;;;;;;;4983378;28;20235;-69
2022/07/22 07:22:52;;;;;;;25.57;21.60;;;;;;;;;;4980865;28;20258;-69
2022/07/22 07:25:20;;;;;;;27.93;22.23;;;;;;;;;;4983017;28;20230;-69
2022/07/22 07:27:52;;;;;;;30.30;23.43;;;;;;;;;;4982153;28;20232;-70
2022/07/22 07:30:25;;;;;;;29.87;23.60;;;;;;;;;;4981890;28;20309;-69
2022/07/22 07:32:52;;;;;;;24.83;22.13;;;;;;;;;;5004947;28;20227;-69
2022/07/22 07:35:19;;;;;;;28.00;24.50;;;;;;;;;;4999885;28;20354;-69
2022/07/22 07:37:46;;;;;;;30.97;24.63;;;;;;;;;;5002348;28;20230;-69
2022/07/22 07:40:13;;;;;;;30.47;25.87;;;;;;;;;;5000485;28;20269;-69
2022/07/22 07:42:40;;;;;;;34.67;26.37;;;;;;;;;;5002770;28;20548;-69
2022/07/22 07:45:14;;;;;;;28.20;25.00;;;;;;;;;;5000775;28;20269;-70
2022/07/22 07:47:41;;;;;;;29.53;24.63;;;;;;;;;;5002371;28;20678;-69
2022/07/22 07:50:08;;;;;;;26.97;24.13;;;;;;;;;;4985470;28;20276;-70
2022/07/22 07:52:38;;;;;;;27.40;22.93;;;;;;;;;;5002175;28;21069;-69
2022/07/22 07:55:05;;;;;;;26.90;23.37;;;;;;;;;;5000567;28;20310;-70
2022/07/22 07:57:51;;;;;;;28.20;23.40;;;;;;;;;;4974245;28;20677;-69
2022/07/22 08:00:23;;;;;;;27.83;21.50;;;;;;;;;;4965813;28;20225;-70
2022/07/22 08:02:50;;;;;;;24.20;21.50;;;;;;;;;;4984225;28;20253;-70
2022/07/22 08:05:21;;;;;;;21.63;19.33;;;;;;;;;;4999110;28;20227;-72
2022/07/22 08:07:50;;;;;;;24.70;20.80;;;;;;;;;;4951437;28;20553;-69
2022/07/22 08:10:17;;;;;;;24.30;20.23;;;;;;;;;;4989191;28;20227;-70
2022/07/22 08:13:20;;;;;;;23.97;18.30;;;;;;;;;;4951789;28;20233;-70
2022/07/22 08:16:13;;;;;;;23.87;18.33;;;;;;;;;;4956994;28;20231;-70
2022/07/22 08:18:41;;;;;;;20.73;18.63;;;;;;;;;;4982218;28;20239;-70
2022/07/22 08:21:09;;;;;;;19.93;17.17;;;;;;;;;;4980441;28;20239;-70
2022/07/22 08:23:42;;;;;;;18.70;16.73;;;;;;;;;;4978519;28;20232;-71
2022/07/22 08:26:11;;;;;;;21.40;15.77;;;;;;;;;;4999318;28;20215;-70
2022/07/22 08:28:38;;;;;;;18.40;16.07;;;;;;;;;;5003140;28;20277;-69
2022/07/22 08:31:05;;;;;;;18.23;15.43;;;;;;;;;;4999945;28;20288;-69
2022/07/22 08:33:33;;;;;;;17.93;14.87;;;;;;;;;;5003381;28;20235;-69
2022/07/22 08:36:00;;;;;;;18.83;15.77;;;;;;;;;;5000814;28;20246;-69
2022/07/22 08:38:27;;;;;;;16.60;14.53;;;;;;;;;;5001260;28;20241;-69
2022/07/22 08:40:56;;;;;;;17.43;14.83;;;;;;;;;;5000265;28;21011;-69
2022/07/22 08:43:42;;;;;;;16.47;13.73;;;;;;;;;;5000221;28;20243;-69
2022/07/22 08:46:10;;;;;;;19.03;14.77;;;;;;;;;;4983111;28;20227;-69
2022/07/22 08:49:01;;;;;;;17.17;14.53;;;;;;;;;;4981267;28;20671;-69
2022/07/22 08:51:51;;;;;;;16.57;13.80;;;;;;;;;;4998522;28;20600;-69
2022/07/22 08:54:38;;;;;;;15.77;14.10;;;;;;;;;;4998888;28;20710;-69
2022/07/22 08:57:06;;;;;;;15.43;12.73;;;;;;;;;;4984846;28;20250;-69
2022/07/22 08:59:33;;;;;;;13.80;12.40;;;;;;;;;;5001434;28;20227;-69
2022/07/22 09:02:02;;;;;;;15.97;12.60;;;;;;;;;;4999347;28;20227;-69
2022/07/22 09:04:31;;;;;;;12.33;11.07;;;;;;;;;;4999226;28;20668;-70
2022/07/22 09:06:58;;;;;;;13.50;10.93;;;;;;;;;;4985176;28;20354;-69
2022/07/22 09:09:30;;;;;;;14.20;10.93;;;;;;;;;;5000997;28;20440;-69
2022/07/22 09:12:31;;;;;;;12.27;9.17;;;;;;;;;;4955239;28;20230;-70
2022/07/22 09:15:24;;;;;;;10.57;8.97;;;;;;;;;;4956975;28;20351;-69
2022/07/22 09:18:11;;;;;;;11.37;8.50;;;;;;;;;;4980956;28;20236;-70
2022/07/22 09:20:59;;;;;;;9.13;8.03;;;;;;;;;;4980897;28;20232;-70
2022/07/22 09:23:46;;;;;;;8.67;7.33;;;;;;;;;;4983105;28;20231;-69
2022/07/22 09:26:29;;;;;;;7.73;6.87;;;;;;;;;;5001240;28;21306;-69
2022/07/22 09:29:32;;;;;;;8.13;7.37;;;;;;;;;;5000528;28;20225;-70
2022/07/22 09:32:15;;;;;;;10.70;8.17;;;;;;;;;;4998338;28;25671;-70
2022/07/22 09:35:05;;;;;;;8.20;7.40;;;;;;;;;;4997100;28;20223;-73
2022/07/22 09:37:50;;;;;;;8.30;7.50;;;;;;;;;;4983061;28;20230;-70
2022/07/22 09:40:44;;;;;;;8.40;7.30;;;;;;;;;;4977379;28;215422;-71
2022/07/22 09:43:12;;;;;;;7.40;6.63;;;;;;;;;;4999050;28;20882;-71
2022/07/22 09:45:53;;;;;;;7.73;6.70;;;;;;;;;;4997939;28;20586;-71
2022/07/22 09:48:29;;;;;;;8.77;7.87;;;;;;;;;;4980950;28;20221;-72
2022/07/22 09:51:33;;;;;;;8.33;7.53;;;;;;;;;;4984604;28;20586;-72
2022/07/22 09:54:15;;;;;;;9.30;8.27;;;;;;;;;;4998174;28;20227;-72
2022/07/22 09:56:42;;;;;;;8.80;7.93;;;;;;;;;;4984305;28;20696;-72
2022/07/22 09:59:08;;;;;;;9.73;8.10;;;;;;;;;;4958659;28;20236;-72
2022/07/22 10:01:42;;;;;;;10.10;8.33;;;;;;;;;;4951704;28;230360;-72
2022/07/22 10:04:09;;;;;;;10.73;8.23;;;;;;;;;;4959911;28;20279;-71
2022/07/22 10:06:37;;;;;;;11.07;8.60;;;;;;;;;;4950906;28;20224;-71
2022/07/22 10:09:07;;;;;;;9.97;8.83;;;;;;;;;;4954026;28;20224;-71
2022/07/22 10:11:44;;;;;;;10.90;9.80;;;;;;;;;;4976905;28;20221;-71
2022/07/22 10:14:14;;;;;;;9.70;8.70;;;;;;;;;;4949688;28;20224;-71
2022/07/22 10:16:50;;;;;;;11.90;9.70;;;;;;;;;;4962273;28;20233;-71
2022/07/22 10:19:17;;;;;;;11.37;10.33;;;;;;;;;;4973900;28;20232;-71
2022/07/22 10:21:44;;;;;;;12.00;10.40;;;;;;;;;;4978255;28;38960;-71
2022/07/22 10:24:14;;;;;;;11.13;10.03;;;;;;;;;;5002105;28;20325;-71
2022/07/22 10:26:53;;;;;;;11.93;10.53;;;;;;;;;;5000652;28;20229;-71
2022/07/22 10:29:29;;;;;;;11.97;10.43;;;;;;;;;;4999888;28;20230;-71
2022/07/22 10:32:15;;;;;;;12.63;10.17;;;;;;;;;;4999545;28;20234;-71
2022/07/22 10:34:42;;;;;;;11.30;10.03;;;;;;;;;;4999927;28;20289;-71
2022/07/22 10:37:33;;;;;;;11.07;10.00;;;;;;;;;;4987232;28;20253;-71
2022/07/22 10:40:12;;;;;;;12.63;9.97;;;;;;;;;;4985231;28;20228;-71
2022/07/22 10:42:59;;;;;;;11.80;9.97;;;;;;;;;;4995976;28;20285;-69
2022/07/22 10:45:26;;;;;;;10.10;9.20;;;;;;;;;;4950579;28;20257;-70
2022/07/22 10:47:55;;;;;;;10.70;9.70;;;;;;;;;;4983525;28;20277;-71
2022/07/22 10:50:37;;;;;;;10.60;9.50;;;;;;;;;;4982711;28;20242;-70
2022/07/22 10:53:04;;;;;;;10.30;9.30;;;;;;;;;;5002398;28;22295;-70
2022/07/22 10:55:31;;;;;;;10.83;9.70;;;;;;;;;;5001234;28;20252;-71
2022/07/22 10:57:58;;;;;;;10.43;9.50;;;;;;;;;;4965583;28;20354;-70
2022/07/22 11:00:42;;;;;;;10.90;9.90;;;;;;;;;;4982144;28;20948;-70
2022/07/22 11:03:09;;;;;;;10.73;9.63;;;;;;;;;;4985999;28;20828;-70
2022/07/22 11:05:54;;;;;;;10.90;9.80;;;;;;;;;;4983615;28;21425;-70
2022/07/22 11:08:20;;;;;;;10.73;9.53;;;;;;;;;;5002782;28;20237;-70
2022/07/22 11:10:48;;;;;;;10.23;9.23;;;;;;;;;;5000789;28;20241;-71
2022/07/22 11:13:31;;;;;;;11.13;10.07;;;;;;;;;;5002910;28;21040;-70
2022/07/22 11:16:17;;;;;;;10.80;9.70;;;;;;;;;;5003511;28;20267;-70
2022/07/22 11:18:47;;;;;;;11.10;10.00;;;;;;;;;;4979011;28;20242;-70
2022/07/22 11:21:15;;;;;;;11.23;10.17;;;;;;;;;;5002192;28;20263;-71
2022/07/22 11:23:42;;;;;;;11.17;9.97;;;;;;;;;;5004821;28;21129;-70
2022/07/22 11:26:10;;;;;;;10.90;9.73;;;;;;;;;;5001876;28;20222;-71
2022/07/22 11:28:40;;;;;;;10.97;9.87;;;;;;;;;;5003330;28;20512;-71
2022/07/22 11:31:08;;;;;;;11.83;9.77;;;;;;;;;;4985880;28;20310;-71
2022/07/22 11:33:35;;;;;;;10.57;9.57;;;;;;;;;;5004129;28;20272;-71
2022/07/22 11:36:04;;;;;;;10.20;9.30;;;;;;;;;;5001205;28;20239;-71
2022/07/22 11:38:44;;;;;;;10.93;9.97;;;;;;;;;;4981395;28;20220;-71
2022/07/22 11:41:18;;;;;;;10.20;9.03;;;;;;;;;;4960222;28;20295;-71
2022/07/22 11:43:46;;;;;;;9.97;8.97;;;;;;;;;;4975058;28;20232;-71
2022/07/22 11:46:13;;;;;;;9.80;8.83;;;;;;;;;;4984477;28;20243;-71
2022/07/22 11:48:41;;;;;;;9.50;8.27;;;;;;;;;;4952837;28;20251;-71
2022/07/22 11:51:10;;;;;;;9.87;8.90;;;;;;;;;;5002758;28;20243;-71
2022/07/22 11:53:47;;;;;;;9.30;8.47;;;;;;;;;;5001099;28;20234;-71
2022/07/22 11:56:14;;;;;;;9.33;8.30;;;;;;;;;;5014273;28;20297;-71
2022/07/22 11:58:41;;;;;;;9.27;8.47;;;;;;;;;;4984407;28;20563;-71
2022/07/22 12:01:14;;;;;;;9.43;8.50;;;;;;;;;;5001406;28;20230;-71
2022/07/22 12:03:44;;;;;;;8.77;7.93;;;;;;;;;;5001074;28;20302;-71
2022/07/22 12:06:11;;;;;;;9.70;8.07;;;;;;;;;;4964645;28;20642;-70
2022/07/22 12:08:46;;;;;;;9.37;8.47;;;;;;;;;;4989710;28;217020;-70
2022/07/22 12:11:14;;;;;;;9.07;8.17;;;;;;;;;;4960670;28;20225;-70
2022/07/22 12:13:42;;;;;;;8.60;7.80;;;;;;;;;;5003888;28;20238;-71
2022/07/22 12:16:19;;;;;;;8.60;7.70;;;;;;;;;;5023226;28;20247;-70
2022/07/22 12:18:56;;;;;;;9.00;8.07;;;;;;;;;;5020230;28;20845;-70
2022/07/22 12:21:22;;;;;;;9.80;7.50;;;;;;;;;;4987290;28;20321;-71
2022/07/22 12:23:53;;;;;;;7.87;6.73;;;;;;;;;;5022961;28;20284;-70
2022/07/22 12:26:39;;;;;;;7.50;6.80;;;;;;;;;;5020852;28;20226;-69
2022/07/22 12:29:14;;;;;;;8.70;6.80;;;;;;;;;;5021857;28;20292;-70
2022/07/22 12:31:47;;;;;;;8.20;7.00;;;;;;;;;;5003514;28;20268;-70
2022/07/22 12:34:14;;;;;;;8.97;7.37;;;;;;;;;;4986184;28;20215;-70
2022/07/22 12:36:45;;;;;;;8.87;8.07;;;;;;;;;;4988539;28;20246;-71
2022/07/22 12:39:15;;;;;;;8.50;7.57;;;;;;;;;;5005282;28;20238;-71
2022/07/22 12:41:49;;;;;;;8.80;7.90;;;;;;;;;;5021714;28;20271;-70
2022/07/22 12:44:17;;;;;;;9.33;7.60;;;;;;;;;;5002922;28;20284;-71
2022/07/22 12:46:44;;;;;;;9.57;8.20;;;;;;;;;;5020507;28;20238;-71
2022/07/22 12:49:11;;;;;;;9.10;8.20;;;;;;;;;;5022248;28;20241;-71
2022/07/22 12:51:38;;;;;;;8.83;8.10;;;;;;;;;;5020057;28;20241;-71
2022/07/22 12:54:05;;;;;;;9.33;8.27;;;;;;;;;;5021651;28;20223;-71
2022/07/22 12:56:49;;;;;;;9.90;8.90;;;;;;;;;;5002583;28;20244;-71
2022/07/22 12:59:16;;;;;;;9.23;7.93;;;;;;;;;;5006644;28;20230;-71
2022/07/22 13:01:43;;;;;;;8.97;8.17;;;;;;;;;;5002231;28;20279;-71
2022/07/22 13:04:10;;;;;;;9.20;8.30;;;;;;;;;;5021890;28;20309;-71
2022/07/22 13:06:37;;;;;;;9.53;8.33;;;;;;;;;;5019967;28;20321;-71
2022/07/22 13:09:03;;;;;;;10.33;8.47;;;;;;;;;;5004388;28;20312;-71
2022/07/22 13:11:31;;;;;;;9.27;8.37;;;;;;;;;;5012476;28;240865;-71
2022/07/22 13:13:57;;;;;;;9.30;8.40;;;;;;;;;;5021631;28;20711;-71
2022/07/22 13:16:25;;;;;;;8.87;8.07;;;;;;;;;;5019906;28;20222;-72
2022/07/22 13:19:10;;;;;;;8.43;7.63;;;;;;;;;;5021153;28;20276;-72
2022/07/22 13:21:37;;;;;;;9.40;8.30;;;;;;;;;;5018707;28;20230;-72
2022/07/22 13:24:04;;;;;;;9.27;7.93;;;;;;;;;;5021483;28;20237;-71
2022/07/22 13:26:32;;;;;;;9.40;8.50;;;;;;;;;;4994426;28;214027;-72
2022/07/22 13:28:58;;;;;;;8.63;7.73;;;;;;;;;;5021174;28;20233;-72
2022/07/22 13:31:26;;;;;;;9.13;8.23;;;;;;;;;;5019422;28;20234;-72
2022/07/22 13:33:53;;;;;;;8.93;8.10;;;;;;;;;;5002628;28;20284;-73
2022/07/22 13:36:22;;;;;;;8.93;8.03;;;;;;;;;;5021729;28;20253;-72
2022/07/22 13:38:49;;;;;;;9.23;8.23;;;;;;;;;;5001881;28;20254;-72
2022/07/22 13:41:19;;;;;;;9.47;8.57;;;;;;;;;;5003749;28;20685;-71
2022/07/22 13:43:46;;;;;;;13.60;9.47;;;;;;;;;;5019470;28;20304;-71
2022/07/22 13:46:13;;;;;;;10.83;9.27;;;;;;;;;;5003821;28;20227;-71
2022/07/22 13:48:40;;;;;;;10.43;9.33;;;;;;;;;;5019144;28;20602;-71
2022/07/22 13:51:07;;;;;;;12.27;9.93;;;;;;;;;;5003869;28;20284;-71
2022/07/22 13:53:34;;;;;;;11.80;9.93;;;;;;;;;;5019125;28;21077;-71
2022/07/22 13:56:01;;;;;;;13.10;9.97;;;;;;;;;;5014095;28;20239;-71
2022/07/22 13:58:27;;;;;;;14.00;10.27;;;;;;;;;;4999417;28;20617;-71
2022/07/22 14:00:54;;;;;;;10.80;9.67;;;;;;;;;;5000911;28;20330;-71
2022/07/22 14:03:21;;;;;;;13.47;10.03;;;;;;;;;;5000421;28;20308;-71
2022/07/22 14:05:48;;;;;;;16.23;12.87;;;;;;;;;;5001068;28;20222;-71
2022/07/22 14:08:15;;;;;;;16.43;14.10;;;;;;;;;;4998908;28;20234;-72
2022/07/22 14:10:41;;;;;;;19.47;15.33;;;;;;;;;;4988011;28;34580;-71
2022/07/22 14:13:08;;;;;;;19.03;15.53;;;;;;;;;;4996958;28;20750;-71
2022/07/22 14:15:35;;;;;;;20.63;15.93;;;;;;;;;;4984885;28;20312;-71
2022/07/22 14:18:05;;;;;;;19.23;14.23;;;;;;;;;;4985514;28;20235;-71
2022/07/22 14:20:33;;;;;;;16.33;13.33;;;;;;;;;;4974418;28;20561;-71
2022/07/22 14:23:01;;;;;;;21.20;15.27;;;;;;;;;;4958270;28;20228;-71
2022/07/22 14:25:45;;;;;;;23.03;18.13;;;;;;;;;;4995752;28;20233;-72
2022/07/22 14:28:19;;;;;;;21.13;16.10;;;;;;;;;;4997899;28;20309;-72
2022/07/22 14:31:02;;;;;;;19.33;15.20;;;;;;;;;;4999360;28;20309;-71
2022/07/22 14:33:29;;;;;;;21.10;15.47;;;;;;;;;;5001296;28;20723;-72
2022/07/22 14:35:56;;;;;;;19.33;14.87;;;;;;;;;;4998285;28;20231;-71
2022/07/22 14:38:23;;;;;;;19.67;15.83;;;;;;;;;;5000577;28;20345;-71
2022/07/22 14:40:51;;;;;;;18.80;15.33;;;;;;;;;;4998538;28;20286;-71
2022/07/22 14:43:18;;;;;;;19.60;15.60;;;;;;;;;;5000023;28;20231;-73
2022/07/22 14:46:07;;;;;;;19.83;14.63;;;;;;;;;;5009870;28;20265;-71
2022/07/22 14:48:34;;;;;;;20.80;15.87;;;;;;;;;;4976759;28;20601;-71